createdAt,value
2019-01-23T00:03:52.074Z,58.33
2019-01-23T00:07:56.774Z,49.77
2019-01-23T00:12:01.467Z,51.93
2019-01-23T00:16:06.170Z,58.10
2019-01-23T00:20:10.868Z,56.67
2019-01-23T00:24:15.569Z,59.97
2019-01-23T00:28:21.237Z,56.77
2019-01-23T00:32:25.922Z,54.07
2019-01-23T00:36:30.616Z,55.03
2019-01-23T00:40:35.312Z,49.27
2019-01-23T00:44:40.014Z,54.50
2019-01-23T00:48:44.718Z,55.13
2019-01-23T00:52:49.403Z,53.10
2019-01-23T00:56:55.169Z,49.17
2019-01-23T01:00:59.866Z,55.70
2019-01-23T01:05:05.538Z,51.33
2019-01-23T01:09:10.245Z,50.80
2019-01-23T01:13:14.923Z,51.50
2019-01-23T01:17:19.625Z,49.50
2019-01-23T01:21:24.321Z,50.80
2019-01-23T01:25:29.015Z,45.53
2019-01-23T01:29:33.714Z,48.47
2019-01-23T01:33:38.402Z,55.57
2019-01-23T01:37:43.100Z,48.13
2019-01-23T01:41:47.796Z,55.83
2019-01-23T01:45:52.494Z,54.13
2019-01-23T01:49:57.197Z,54.50
2019-01-23T01:54:01.888Z,49.47
2019-01-23T01:58:10.243Z,47.80
2019-01-23T02:02:12.980Z,53.13
2019-01-23T02:06:17.682Z,48.73
2019-01-23T02:10:22.380Z,47.07
2019-01-23T02:14:27.070Z,50.93
2019-01-23T02:18:31.769Z,43.27
2019-01-23T02:22:36.475Z,38.87
2019-01-23T02:26:41.165Z,45.83
2019-01-23T02:30:45.848Z,47.40
2019-01-23T02:34:50.552Z,46.13
2019-01-23T02:38:55.251Z,44.30
2019-01-23T02:42:59.945Z,49.97
2019-01-23T02:47:04.663Z,44.90
2019-01-23T02:51:09.345Z,48.20
2019-01-23T02:55:14.043Z,48.33
2019-01-23T02:59:18.745Z,51.30
2019-01-23T03:03:23.438Z,46.13
2019-01-23T03:07:28.121Z,49.57
2019-01-23T03:11:32.819Z,42.67
2019-01-23T03:15:37.514Z,45.90
2019-01-23T03:19:42.283Z,47.83
2019-01-23T03:23:47.053Z,44.27
2019-01-23T03:27:51.745Z,45.03
2019-01-23T03:31:56.439Z,48.57
2019-01-23T03:36:01.142Z,43.70
2019-01-23T03:40:17.390Z,45.70
2019-01-23T03:44:22.092Z,57.40
2019-01-23T03:48:26.792Z,51.23
2019-01-23T03:52:31.478Z,44.83
2019-01-23T03:56:36.174Z,45.03
2019-01-23T04:00:40.873Z,45.83
2019-01-23T04:04:45.577Z,46.00
2019-01-23T04:08:51.343Z,52.83
2019-01-23T04:12:56.039Z,50.33
2019-01-23T04:17:00.743Z,49.87
2019-01-23T04:21:05.442Z,46.40
2019-01-23T04:25:10.510Z,54.60
2019-01-23T04:29:15.210Z,50.47
2019-01-23T04:33:19.904Z,47.40
2019-01-23T04:37:24.599Z,47.53
2019-01-23T04:41:29.297Z,53.50
2019-01-23T04:45:33.994Z,43.37
2019-01-23T04:49:38.681Z,46.93
2019-01-23T04:53:45.049Z,49.23
2019-01-23T04:57:49.758Z,49.13
2019-01-23T05:01:54.456Z,52.73
2019-01-23T05:05:59.148Z,55.90
2019-01-23T05:10:05.376Z,52.33
2019-01-23T05:14:10.074Z,46.03
2019-01-23T05:18:14.772Z,51.87
2019-01-23T05:22:19.481Z,49.03
2019-01-23T05:26:24.172Z,42.73
2019-01-23T05:30:28.856Z,41.33
2019-01-23T05:34:33.564Z,43.17
2019-01-23T05:38:38.269Z,53.43
2019-01-23T05:42:42.969Z,46.20
2019-01-23T05:46:47.743Z,45.23
2019-01-23T05:50:52.427Z,51.27
2019-01-23T05:54:57.126Z,46.43
2019-01-23T05:59:01.835Z,46.27
2019-01-23T06:03:06.525Z,50.87
2019-01-23T06:07:11.221Z,49.73
2019-01-23T06:11:15.911Z,49.87
2019-01-23T06:15:20.610Z,54.20
2019-01-23T06:19:26.381Z,52.77
2019-01-23T06:23:31.080Z,49.17
2019-01-23T06:27:35.847Z,53.10
2019-01-23T06:31:40.537Z,50.70
2019-01-23T06:35:45.240Z,46.13
2019-01-23T06:39:49.952Z,50.23
2019-01-23T06:43:54.648Z,45.50
2019-01-23T06:47:59.346Z,52.17
2019-01-23T06:52:04.038Z,50.40
2019-01-23T06:56:08.739Z,50.47
2019-01-23T07:00:18.790Z,47.03
2019-01-23T07:04:23.479Z,48.40
2019-01-23T07:08:28.176Z,42.63
2019-01-23T07:12:32.868Z,57.20
2019-01-23T07:16:38.636Z,55.50
2019-01-23T07:20:43.337Z,57.80
2019-01-23T07:24:48.045Z,43.80
2019-01-23T07:28:52.749Z,50.43
2019-01-23T07:32:57.441Z,53.90
2019-01-23T07:37:02.148Z,43.90
2019-01-23T07:41:07.820Z,45.80
2019-01-23T07:45:15.817Z,43.20
2019-01-23T07:49:20.511Z,46.13
2019-01-23T07:53:25.217Z,52.00
2019-01-23T07:57:29.915Z,49.30
2019-01-23T08:01:34.611Z,51.60
2019-01-23T08:05:39.309Z,39.20
2019-01-23T08:09:43.997Z,46.30
2019-01-23T08:13:48.738Z,48.30
2019-01-23T08:17:53.407Z,42.83
2019-01-23T08:21:58.109Z,48.77
2019-01-23T08:26:02.817Z,51.57
2019-01-23T08:30:10.347Z,55.17
2019-01-23T08:34:15.055Z,48.37
2019-01-23T08:38:19.752Z,48.80
2019-01-23T08:42:24.457Z,46.30
2019-01-23T08:46:29.204Z,50.43
2019-01-23T08:50:36.700Z,48.80
2019-01-23T08:54:41.405Z,47.73
2019-01-23T08:58:46.104Z,52.53
2019-01-23T09:02:50.807Z,56.30
2019-01-23T09:06:55.498Z,48.10
2019-01-23T09:11:00.195Z,46.27
2019-01-23T09:15:08.233Z,46.20
2019-01-23T09:19:12.935Z,49.50
2019-01-23T09:23:17.641Z,55.73
2019-01-23T09:27:22.327Z,58.00
2019-01-23T09:31:33.069Z,58.93
2019-01-23T09:36:06.486Z,50.50
2019-01-23T09:40:14.440Z,50.17
2019-01-23T09:44:37.534Z,53.50
2019-01-23T09:48:54.365Z,49.80
2019-01-23T09:53:02.330Z,58.33
2019-01-23T09:57:07.013Z,46.77
2019-01-23T10:01:11.710Z,54.90
2019-01-23T10:05:16.474Z,49.93
2019-01-23T10:09:21.174Z,45.03
2019-01-23T10:13:25.869Z,55.13
2019-01-23T10:17:30.562Z,46.90
2019-01-23T10:21:35.259Z,53.30
2019-01-23T10:25:39.959Z,51.70
2019-01-23T10:29:44.652Z,56.23
2019-01-23T10:33:49.355Z,59.90
2019-01-23T10:37:54.045Z,49.47
2019-01-23T10:41:58.746Z,48.13
2019-01-23T10:46:03.440Z,53.13
2019-01-23T10:50:11.176Z,50.40
2019-01-23T10:54:15.873Z,48.20
2019-01-23T10:58:20.570Z,52.43
2019-01-23T11:02:25.273Z,50.20
2019-01-23T11:06:29.974Z,50.40
2019-01-23T11:10:34.670Z,53.50
2019-01-23T11:14:39.373Z,57.40
2019-01-23T11:18:44.063Z,48.57
2019-01-23T11:22:48.762Z,51.87
2019-01-23T11:26:53.465Z,50.67
2019-01-23T11:30:58.165Z,55.17
2019-01-23T11:35:02.869Z,52.00
2019-01-23T11:39:08.292Z,53.07
2019-01-23T11:43:12.991Z,58.00
2019-01-23T11:47:17.695Z,48.20
2019-01-23T11:51:22.392Z,54.43
2019-01-23T11:55:27.091Z,54.27
2019-01-23T11:59:31.776Z,51.40
2019-01-23T12:03:36.474Z,48.70
2019-01-23T12:07:41.176Z,43.73
2019-01-23T12:11:45.883Z,48.13
2019-01-23T12:15:50.580Z,47.80
2019-01-23T12:19:55.260Z,52.20
2019-01-23T12:23:59.965Z,48.77
2019-01-23T12:28:04.665Z,51.10
2019-01-23T12:32:09.363Z,51.07
2019-01-23T12:36:14.067Z,52.43
2019-01-23T12:40:18.750Z,44.10
2019-01-23T12:44:23.453Z,46.27
2019-01-23T12:48:28.151Z,46.30
2019-01-23T12:52:32.846Z,47.73
2019-01-23T12:56:37.536Z,49.30
2019-01-23T13:00:42.238Z,44.27
2019-01-23T13:04:46.945Z,43.53
2019-01-23T13:08:51.643Z,49.23
2019-01-23T13:12:56.411Z,47.20
2019-01-23T13:17:01.106Z,43.63
2019-01-23T13:21:05.813Z,44.47
2019-01-23T13:25:24.302Z,50.00
2019-01-23T13:29:29.958Z,45.83
2019-01-23T13:33:34.667Z,48.10
2019-01-23T13:37:39.368Z,45.67
2019-01-23T13:41:44.057Z,48.97
2019-01-23T13:45:48.751Z,50.73
2019-01-23T13:49:53.464Z,45.43
2019-01-23T13:53:58.162Z,51.13
2019-01-23T13:58:02.855Z,49.53
2019-01-23T14:02:07.548Z,44.93
2019-01-23T14:06:12.243Z,41.93
2019-01-23T14:10:17.775Z,43.97
2019-01-23T14:14:22.475Z,50.50
2019-01-23T14:18:27.175Z,43.13
2019-01-23T14:22:31.868Z,47.30
2019-01-23T14:26:36.568Z,48.13
2019-01-23T14:30:42.910Z,43.80
2019-01-23T14:34:47.606Z,46.20
2019-01-23T14:38:52.301Z,50.77
2019-01-23T14:42:56.985Z,49.23
2019-01-23T14:47:01.687Z,46.97
2019-01-23T14:51:06.385Z,42.90
2019-01-23T14:55:11.351Z,44.40
2019-01-23T14:59:16.047Z,40.93
2019-01-23T15:03:20.747Z,39.13
2019-01-23T15:07:25.458Z,41.37
2019-01-23T15:11:30.156Z,43.63
2019-01-23T15:15:34.859Z,43.47
2019-01-23T15:19:39.558Z,43.10
2019-01-23T15:23:45.120Z,51.67
2019-01-23T15:27:49.823Z,49.50
2019-01-23T15:31:54.523Z,42.97
2019-01-23T15:35:59.226Z,47.87
2019-01-23T15:40:06.461Z,45.90
2019-01-23T15:44:11.156Z,46.30
2019-01-23T15:48:16.825Z,44.67
2019-01-23T15:52:21.524Z,44.30
2019-01-23T15:56:26.222Z,47.83
2019-01-23T16:00:32.251Z,41.33
2019-01-23T16:04:36.954Z,46.23
2019-01-23T16:08:41.657Z,46.10
2019-01-23T16:12:46.357Z,44.37
2019-01-23T16:16:51.069Z,45.10
2019-01-23T16:20:55.752Z,44.90
2019-01-23T16:25:01.755Z,44.40
2019-01-23T16:29:06.820Z,42.43
2019-01-23T16:33:11.525Z,45.23
2019-01-23T16:37:16.223Z,46.90
2019-01-23T16:41:20.927Z,48.90
2019-01-23T16:45:25.623Z,47.17
2019-01-23T16:49:30.316Z,59.37
2019-01-23T16:53:35.024Z,58.50
2019-01-23T16:57:39.726Z,67.13
2019-01-23T17:01:44.459Z,46.20
2019-01-23T17:05:49.157Z,61.57
2019-01-23T17:09:53.854Z,50.63
2019-01-23T17:13:58.554Z,45.27
2019-01-23T17:18:03.252Z,48.17
2019-01-23T17:22:07.997Z,46.37
2019-01-23T17:26:12.634Z,45.77
2019-01-23T17:30:18.578Z,47.73
2019-01-23T17:34:23.279Z,50.30
2019-01-23T17:38:27.980Z,44.90
2019-01-23T17:42:32.682Z,81.20
2019-01-23T17:46:37.379Z,46.47
2019-01-23T17:50:42.078Z,47.13
2019-01-23T17:54:46.776Z,54.67
2019-01-23T17:58:51.469Z,52.23
2019-01-23T18:02:56.172Z,47.23
2019-01-23T18:07:00.866Z,47.27
2019-01-23T18:11:06.540Z,48.80
2019-01-23T18:15:14.506Z,42.70
2019-01-23T18:19:19.207Z,46.20
2019-01-23T18:23:23.935Z,43.77
2019-01-23T18:27:28.634Z,52.30
2019-01-23T18:31:33.964Z,46.10
2019-01-23T18:36:00.158Z,49.30
2019-01-23T18:40:20.164Z,47.23
2019-01-23T18:44:43.317Z,48.37
2019-01-23T18:49:24.705Z,50.80
2019-01-23T18:53:29.389Z,54.83
2019-01-23T18:57:34.098Z,50.37
2019-01-23T19:01:38.869Z,51.10
2019-01-23T19:05:43.573Z,50.37
2019-01-23T19:09:48.280Z,52.43
2019-01-23T19:13:52.969Z,53.57
2019-01-23T19:17:57.710Z,47.27
2019-01-23T19:22:02.362Z,45.30
2019-01-23T19:26:07.067Z,50.50
2019-01-23T19:30:22.472Z,53.03
2019-01-23T19:34:27.393Z,50.93
2019-01-23T19:38:32.046Z,51.90
2019-01-23T19:42:36.754Z,49.30
2019-01-23T19:46:41.452Z,48.50
2019-01-23T19:50:46.153Z,43.33
2019-01-23T19:54:50.843Z,45.47
2019-01-23T19:58:55.537Z,50.10
2019-01-23T20:03:00.235Z,50.47
2019-01-23T20:07:06.007Z,46.73
2019-01-23T20:11:11.779Z,50.60
2019-01-23T20:15:18.207Z,50.80
2019-01-23T20:19:22.909Z,49.37
2019-01-23T20:23:27.606Z,47.83
2019-01-23T20:27:32.305Z,42.70
2019-01-23T20:31:37.008Z,46.20
2019-01-23T20:35:41.775Z,50.27
2019-01-23T20:39:46.474Z,44.30
2019-01-23T20:43:51.177Z,43.20
2019-01-23T20:47:57.510Z,47.60
2019-01-23T20:52:02.212Z,44.13
2019-01-23T20:56:06.906Z,38.03
2019-01-23T21:00:17.354Z,43.77
2019-01-23T21:04:22.052Z,46.47
2019-01-23T21:08:26.762Z,47.13
2019-01-23T21:12:31.457Z,44.97
2019-01-23T21:16:36.146Z,49.50
2019-01-23T21:20:40.838Z,46.70
2019-01-23T21:24:45.538Z,45.53
2019-01-23T21:28:50.255Z,44.77
2019-01-23T21:32:54.956Z,47.80
2019-01-23T21:36:59.661Z,44.50
2019-01-23T21:41:04.365Z,48.30
2019-01-23T21:45:12.105Z,49.77
2019-01-23T21:49:16.808Z,38.90
2019-01-23T21:53:21.511Z,52.70
2019-01-23T21:57:26.213Z,45.37
2019-01-23T22:01:30.915Z,46.47
2019-01-23T22:05:35.615Z,46.47
2019-01-23T22:09:40.308Z,48.93
2019-01-23T22:13:45.005Z,48.20
2019-01-23T22:17:49.705Z,45.10
2019-01-23T22:21:54.390Z,49.10
2019-01-23T22:25:59.088Z,49.43
2019-01-23T22:30:06.082Z,55.13
2019-01-23T22:34:10.784Z,53.77
2019-01-23T22:38:15.472Z,49.77
2019-01-23T22:42:20.157Z,52.87
2019-01-23T22:46:24.856Z,52.57
2019-01-23T22:50:29.554Z,55.83
2019-01-23T22:54:34.252Z,51.13
2019-01-23T22:58:38.945Z,57.60
2019-01-23T23:02:43.647Z,55.27
2019-01-23T23:06:48.347Z,58.80
2019-01-23T23:10:53.046Z,66.40
2019-01-23T23:14:57.742Z,64.10
2019-01-23T23:19:02.435Z,72.33
2019-01-23T23:23:07.133Z,65.07
2019-01-23T23:27:11.839Z,63.23
2019-01-23T23:31:16.605Z,72.83
2019-01-23T23:35:21.307Z,69.67
2019-01-23T23:39:25.990Z,71.37
2019-01-23T23:43:30.693Z,75.33
2019-01-23T23:47:35.390Z,70.93
2019-01-23T23:51:40.081Z,76.53
2019-01-23T23:55:44.783Z,78.97
2019-01-23T23:59:49.474Z,71.90
